sensor_id;sensor_type;location;lat;lon;timestamp;pressure;altitude;pressure_sealevel;temperature;humidity
20023;BME280;10172;42.054;24.546;2023-05-12T00:01:25;98574.03;;;11.29;100.00
20023;BME280;10172;42.054;24.546;2023-05-12T00:03:51;98529.47;;;9.94;100.00
20023;BME280;10172;42.054;24.546;2023-05-12T00:06:18;98545.88;;;10.71;100.00
20023;BME280;10172;42.054;24.546;2023-05-12T00:08:44;98576.88;;;10.58;100.00
20023;BME280;10172;42.054;24.546;2023-05-12T00:11:09;98530.84;;;9.72;100.00
20023;BME280;10172;42.054;24.546;2023-05-12T00:13:35;98572.03;;;10.65;100.00
20023;BME280;10172;42.054;24.546;2023-05-12T00:16:02;98562.63;;;10.31;100.00
20023;BME280;10172;42.054;24.546;2023-05-12T00:18:28;98568.69;;;10.61;100.00
20023;BME280;10172;42.054;24.546;2023-05-12T00:20:53;98554.28;;;10.23;100.00
20023;BME280;10172;42.054;24.546;2023-05-12T00:23:20;98559.34;;;10.68;100.00
20023;BME280;10172;42.054;24.546;2023-05-12T00:25:47;98579.16;;;10.50;100.00
20023;BME280;10172;42.054;24.546;2023-05-12T00:28:12;98554.06;;;10.54;100.00
20023;BME280;10172;42.054;24.546;2023-05-12T00:30:38;98576.28;;;10.11;100.00
20023;BME280;10172;42.054;24.546;2023-05-12T00:33:03;98583.91;;;10.59;100.00
20023;BME280;10172;42.054;24.546;2023-05-12T00:35:29;98547.25;;;10.36;100.00
20023;BME280;10172;42.054;24.546;2023-05-12T00:37:55;98537.19;;;10.27;100.00
20023;BME280;10172;42.054;24.546;2023-05-12T00:40:20;98552.38;;;10.25;100.00
20023;BME280;10172;42.054;24.546;2023-05-12T00:42:45;98553.06;;;10.84;100.00
20023;BME280;10172;42.054;24.546;2023-05-12T00:45:11;98563.56;;;11.26;100.00
20023;BME280;10172;42.054;24.546;2023-05-12T00:47:37;98567.19;;;11.25;100.00
20023;BME280;10172;42.054;24.546;2023-05-12T00:50:03;98588.72;;;11.61;100.00
20023;BME280;10172;42.054;24.546;2023-05-12T00:52:29;98578.47;;;10.61;100.00
20023;BME280;10172;42.054;24.546;2023-05-12T00:54:54;98587.63;;;10.29;100.00
20023;BME280;10172;42.054;24.546;2023-05-12T00:57:21;98565.28;;;11.00;100.00
20023;BME280;10172;42.054;24.546;2023-05-12T00:59:47;98561.88;;;10.15;100.00
20023;BME280;10172;42.054;24.546;2023-05-12T01:02:12;98542.47;;;10.41;100.00
20023;BME280;10172;42.054;24.546;2023-05-12T01:04:38;98594.34;;;11.03;100.00
20023;BME280;10172;42.054;24.546;2023-05-12T01:07:22;98602.28;;;10.91;100.00
20023;BME280;10172;42.054;24.546;2023-05-12T01:09:53;98579.16;;;10.50;100.00
20023;BME280;10172;42.054;24.546;2023-05-12T01:12:20;98574.25;;;10.85;100.00
20023;BME280;10172;42.054;24.546;2023-05-12T01:14:46;98583.84;;;10.88;100.00
20023;BME280;10172;42.054;24.546;2023-05-12T01:17:11;98583.13;;;10.71;100.00
20023;BME280;10172;42.054;24.546;2023-05-12T01:19:57;98607.28;;;11.09;100.00
20023;BME280;10172;42.054;24.546;2023-05-12T01:22:24;98587.13;;;10.50;100.00
20023;BME280;10172;42.054;24.546;2023-05-12T01:24:53;98576.84;;;10.87;100.00
20023;BME280;10172;42.054;24.546;2023-05-12T01:27:20;98582.44;;;11.09;100.00
20023;BME280;10172;42.054;24.546;2023-05-12T01:29:47;98554.06;;;10.54;100.00
20023;BME280;10172;42.054;24.546;2023-05-12T01:32:13;98566.59;;;11.07;100.00
20023;BME280;10172;42.054;24.546;2023-05-12T01:34:39;98572.16;;;10.90;100.00
20023;BME280;10172;42.054;24.546;2023-05-12T01:37:07;98586.94;;;10.53;100.00
20023;BME280;10172;42.054;24.546;2023-05-12T01:39:33;98585.81;;;10.98;100.00
20023;BME280;10172;42.054;24.546;2023-05-12T01:41:59;98556.34;;;10.46;100.00
20023;BME280;10172;42.054;24.546;2023-05-12T01:44:24;98574.47;;;11.09;100.00
20023;BME280;10172;42.054;24.546;2023-05-12T01:46:50;98576.19;;;11.49;100.00
20023;BME280;10172;42.054;24.546;2023-05-12T01:49:15;98602.47;;;12.07;100.00
20023;BME280;10172;42.054;24.546;2023-05-12T01:51:41;98564.59;;;12.15;100.00
20023;BME280;10172;42.054;24.546;2023-05-12T01:54:06;98568.34;;;12.25;100.00
20023;BME280;10172;42.054;24.546;2023-05-12T01:56:32;98589.88;;;11.57;100.00
20023;BME280;10172;42.054;24.546;2023-05-12T01:58:57;98557.94;;;11.04;100.00
20023;BME280;10172;42.054;24.546;2023-05-12T02:01:22;98577.81;;;12.04;100.00
20023;BME280;10172;42.054;24.546;2023-05-12T02:03:53;98591.50;;;11.99;100.00
20023;BME280;10172;42.054;24.546;2023-05-12T02:06:18;98574.41;;;11.89;100.00
20023;BME280;10172;42.054;24.546;2023-05-12T02:08:44;98579.00;;;12.25;100.00
20023;BME280;10172;42.054;24.546;2023-05-12T02:11:09;98574.53;;;12.13;100.00
20023;BME280;10172;42.054;24.546;2023-05-12T02:13:35;98538.81;;;11.51;100.00
20023;BME280;10172;42.054;24.546;2023-05-12T02:16:00;98586.69;;;10.99;100.00
20023;BME280;10172;42.054;24.546;2023-05-12T02:18:26;98575.69;;;11.83;100.00
20023;BME280;10172;42.054;24.546;2023-05-12T02:20:52;98565.03;;;12.09;100.00
20023;BME280;10172;42.054;24.546;2023-05-12T02:23:18;98602.81;;;12.28;100.00
20023;BME280;10172;42.054;24.546;2023-05-12T02:25:43;98579.13;;;12.11;100.00
20023;BME280;10172;42.054;24.546;2023-05-12T02:28:09;98575.75;;;11.30;100.00
20023;BME280;10172;42.054;24.546;2023-05-12T02:30:36;98563.97;;;11.20;100.00
20023;BME280;10172;42.054;24.546;2023-05-12T02:33:02;98585.38;;;10.77;100.00
20023;BME280;10172;42.054;24.546;2023-05-12T02:35:30;98579.59;;;10.71;100.00
20023;BME280;10172;42.054;24.546;2023-05-12T02:37:56;98577.28;;;10.79;100.00
20023;BME280;10172;42.054;24.546;2023-05-12T02:40:22;98580.97;;;11.31;100.00
20023;BME280;10172;42.054;24.546;2023-05-12T02:42:47;98554.25;;;10.92;100.00
20023;BME280;10172;42.054;24.546;2023-05-12T02:45:13;98598.84;;;11.03;100.00
20023;BME280;10172;42.054;24.546;2023-05-12T02:47:38;98589.84;;;11.45;100.00
20023;BME280;10172;42.054;24.546;2023-05-12T02:50:04;98564.00;;;11.06;100.00
20023;BME280;10172;42.054;24.546;2023-05-12T02:52:30;98562.06;;;11.22;100.00
20023;BME280;10172;42.054;24.546;2023-05-12T02:54:55;98592.97;;;12.03;100.00
20023;BME280;10172;42.054;24.546;2023-05-12T02:57:21;98577.13;;;11.62;100.00
20023;BME280;10172;42.054;24.546;2023-05-12T02:59:47;98587.72;;;10.27;100.00
20023;BME280;10172;42.054;24.546;2023-05-12T03:02:12;98599.22;;;9.98;100.00
20023;BME280;10172;42.054;24.546;2023-05-12T03:04:38;98601.44;;;10.05;100.00
20023;BME280;10172;42.054;24.546;2023-05-12T03:07:03;98569.13;;;10.82;100.00
20023;BME280;10172;42.054;24.546;2023-05-12T03:09:29;98596.75;;;11.34;100.00
20023;BME280;10172;42.054;24.546;2023-05-12T03:11:54;98560.78;;;10.74;100.00
20023;BME280;10172;42.054;24.546;2023-05-12T03:14:20;98582.19;;;11.53;100.00
20023;BME280;10172;42.054;24.546;2023-05-12T03:16:45;98612.94;;;11.97;100.00
20023;BME280;10172;42.054;24.546;2023-05-12T03:19:11;98619.25;;;12.34;100.00
20023;BME280;10172;42.054;24.546;2023-05-12T03:21:36;98588.03;;;11.84;100.00
20023;BME280;10172;42.054;24.546;2023-05-12T03:24:02;98611.56;;;12.30;100.00
20023;BME280;10172;42.054;24.546;2023-05-12T03:26:27;98614.50;;;11.87;100.00
20023;BME280;10172;42.054;24.546;2023-05-12T03:28:53;98612.53;;;10.97;100.00
20023;BME280;10172;42.054;24.546;2023-05-12T03:31:19;98637.75;;;11.85;100.00
20023;BME280;10172;42.054;24.546;2023-05-12T03:33:44;98633.94;;;12.02;100.00
20023;BME280;10172;42.054;24.546;2023-05-12T03:36:10;98599.06;;;12.18;100.00
20023;BME280;10172;42.054;24.546;2023-05-12T03:38:35;98596.94;;;12.48;100.00
20023;BME280;10172;42.054;24.546;2023-05-12T03:41:07;98642.97;;;13.00;100.00
20023;BME280;10172;42.054;24.546;2023-05-12T03:43:32;98620.66;;;13.01;100.00
20023;BME280;10172;42.054;24.546;2023-05-12T03:45:58;98638.81;;;12.96;100.00
20023;BME280;10172;42.054;24.546;2023-05-12T03:48:24;98632.13;;;11.36;100.00
20023;BME280;10172;42.054;24.546;2023-05-12T03:50:50;98649.09;;;12.02;100.00
20023;BME280;10172;42.054;24.546;2023-05-12T03:53:15;98634.31;;;12.35;100.00
20023;BME280;10172;42.054;24.546;2023-05-12T03:55:41;98619.13;;;12.36;100.00
20023;BME280;10172;42.054;24.546;2023-05-12T03:58:07;98655.69;;;12.09;100.00
20023;BME280;10172;42.054;24.546;2023-05-12T04:00:32;98649.91;;;11.36;100.00
20023;BME280;10172;42.054;24.546;2023-05-12T04:02:58;98651.75;;;12.02;100.00
20023;BME280;10172;42.054;24.546;2023-05-12T04:05:24;98643.97;;;12.49;100.00
20023;BME280;10172;42.054;24.546;2023-05-12T04:07:50;98645.06;;;12.46;100.00
20023;BME280;10172;42.054;24.546;2023-05-12T04:10:15;98639.94;;;12.81;100.00
20023;BME280;10172;42.054;24.546;2023-05-12T04:12:41;98639.34;;;13.01;100.00
20023;BME280;10172;42.054;24.546;2023-05-12T04:15:07;98639.75;;;13.21;100.00
20023;BME280;10172;42.054;24.546;2023-05-12T04:17:33;98634.28;;;13.22;100.00
20023;BME280;10172;42.054;24.546;2023-05-12T04:19:58;98644.94;;;13.35;100.00
20023;BME280;10172;42.054;24.546;2023-05-12T04:22:25;98657.66;;;12.70;100.00
20023;BME280;10172;42.054;24.546;2023-05-12T04:24:50;98619.19;;;12.85;100.00
20023;BME280;10172;42.054;24.546;2023-05-12T04:27:16;98659.44;;;13.07;100.00
20023;BME280;10172;42.054;24.546;2023-05-12T04:29:41;98636.28;;;13.07;100.00
20023;BME280;10172;42.054;24.546;2023-05-12T04:32:07;98637.16;;;12.57;100.00
20023;BME280;10172;42.054;24.546;2023-05-12T04:34:32;98594.28;;;12.48;100.00
20023;BME280;10172;42.054;24.546;2023-05-12T04:36:58;98580.19;;;12.46;100.00
20023;BME280;10172;42.054;24.546;2023-05-12T04:39:23;98638.31;;;12.41;100.00
20023;BME280;10172;42.054;24.546;2023-05-12T04:41:49;98644.66;;;11.75;100.00
20023;BME280;10172;42.054;24.546;2023-05-12T04:44:14;98634.00;;;11.49;100.00
20023;BME280;10172;42.054;24.546;2023-05-12T04:46:41;98628.66;;;12.27;100.00
20023;BME280;10172;42.054;24.546;2023-05-12T04:49:07;98621.69;;;12.25;100.00
20023;BME280;10172;42.054;24.546;2023-05-12T04:51:32;98612.16;;;11.83;100.00
20023;BME280;10172;42.054;24.546;2023-05-12T04:53:58;98638.47;;;11.75;100.00
20023;BME280;10172;42.054;24.546;2023-05-12T04:56:23;98636.38;;;10.98;100.00
20023;BME280;10172;42.054;24.546;2023-05-12T04:58:49;98608.19;;;11.49;100.00
20023;BME280;10172;42.054;24.546;2023-05-12T05:01:14;98587.22;;;11.96;100.00
20023;BME280;10172;42.054;24.546;2023-05-12T05:03:40;98626.47;;;12.20;100.00
20023;BME280;10172;42.054;24.546;2023-05-12T05:06:05;98652.63;;;12.52;100.00
20023;BME280;10172;42.054;24.546;2023-05-12T05:08:31;98618.78;;;12.66;100.00
20023;BME280;10172;42.054;24.546;2023-05-12T05:10:56;98655.94;;;12.69;100.00
20023;BME280;10172;42.054;24.546;2023-05-12T05:13:22;98627.53;;;12.05;100.00
20023;BME280;10172;42.054;24.546;2023-05-12T05:15:51;98648.78;;;12.69;100.00
20023;BME280;10172;42.054;24.546;2023-05-12T05:18:17;98608.31;;;12.75;100.00
20023;BME280;10172;42.054;24.546;2023-05-12T05:20:43;98637.56;;;12.89;100.00
20023;BME280;10172;42.054;24.546;2023-05-12T05:23:10;98553.50;;;12.33;100.00
20023;BME280;10172;42.054;24.546;2023-05-12T05:25:35;98634.25;;;12.86;100.00
20023;BME280;10172;42.054;24.546;2023-05-12T05:28:01;98641.38;;;12.98;100.00
20023;BME280;10172;42.054;24.546;2023-05-12T05:30:27;98653.84;;;13.23;100.00
20023;BME280;10172;42.054;24.546;2023-05-12T05:32:52;98624.91;;;13.16;100.00
20023;BME280;10172;42.054;24.546;2023-05-12T05:35:18;98621.94;;;12.96;100.00
20023;BME280;10172;42.054;24.546;2023-05-12T05:37:43;98650.06;;;12.76;100.00
20023;BME280;10172;42.054;24.546;2023-05-12T05:40:09;98659.75;;;13.02;100.00
20023;BME280;10172;42.054;24.546;2023-05-12T05:42:34;98620.94;;;12.73;100.00
20023;BME280;10172;42.054;24.546;2023-05-12T05:45:00;98633.41;;;12.85;100.00
20023;BME280;10172;42.054;24.546;2023-05-12T05:47:26;98673.22;;;12.88;100.00
20023;BME280;10172;42.054;24.546;2023-05-12T05:49:52;98621.13;;;12.83;100.00
20023;BME280;10172;42.054;24.546;2023-05-12T05:52:18;98650.38;;;12.97;100.00
20023;BME280;10172;42.054;24.546;2023-05-12T05:54:44;98597.00;;;12.72;100.00
20023;BME280;10172;42.054;24.546;2023-05-12T05:57:09;98644.44;;;12.43;100.00
20023;BME280;10172;42.054;24.546;2023-05-12T05:59:35;98636.88;;;12.98;100.00
20023;BME280;10172;42.054;24.546;2023-05-12T06:02:00;98649.56;;;12.58;100.00
20023;BME280;10172;42.054;24.546;2023-05-12T06:04:26;98673.00;;;13.04;100.00
20023;BME280;10172;42.054;24.546;2023-05-12T06:06:52;98671.63;;;12.86;100.00
20023;BME280;10172;42.054;24.546;2023-05-12T06:09:17;98664.03;;;12.92;100.00
20023;BME280;10172;42.054;24.546;2023-05-12T06:11:43;98662.63;;;13.25;100.00
20023;BME280;10172;42.054;24.546;2023-05-12T06:14:08;98668.59;;;13.52;100.00
20023;BME280;10172;42.054;24.546;2023-05-12T06:16:34;98672.53;;;13.35;100.00
20023;BME280;10172;42.054;24.546;2023-05-12T06:18:59;98679.19;;;13.30;100.00
20023;BME280;10172;42.054;24.546;2023-05-12T06:21:25;98629.66;;;12.88;100.00
20023;BME280;10172;42.054;24.546;2023-05-12T06:23:50;98637.03;;;13.33;100.00
20023;BME280;10172;42.054;24.546;2023-05-12T06:26:16;98692.75;;;13.27;100.00
20023;BME280;10172;42.054;24.546;2023-05-12T06:28:41;98679.63;;;12.23;100.00
20023;BME280;10172;42.054;24.546;2023-05-12T06:31:07;98685.00;;;13.11;100.00
20023;BME280;10172;42.054;24.546;2023-05-12T06:33:35;98684.59;;;13.41;100.00
20023;BME280;10172;42.054;24.546;2023-05-12T06:36:00;98672.06;;;13.41;100.00
20023;BME280;10172;42.054;24.546;2023-05-12T06:38:26;98674.06;;;13.27;100.00
20023;BME280;10172;42.054;24.546;2023-05-12T06:40:51;98673.63;;;13.33;100.00
20023;BME280;10172;42.054;24.546;2023-05-12T06:43:17;98677.72;;;13.73;100.00
20023;BME280;10172;42.054;24.546;2023-05-12T06:45:43;98653.84;;;13.59;100.00
20023;BME280;10172;42.054;24.546;2023-05-12T06:48:08;98679.53;;;13.72;100.00
20023;BME280;10172;42.054;24.546;2023-05-12T06:50:34;98687.38;;;13.63;100.00
20023;BME280;10172;42.054;24.546;2023-05-12T06:53:00;98669.16;;;13.21;100.00
20023;BME280;10172;42.054;24.546;2023-05-12T06:55:25;98654.88;;;12.21;100.00
20023;BME280;10172;42.054;24.546;2023-05-12T06:57:51;98691.69;;;12.41;100.00
20023;BME280;10172;42.054;24.546;2023-05-12T07:00:21;98667.47;;;12.19;100.00
20023;BME280;10172;42.054;24.546;2023-05-12T07:02:47;98613.91;;;12.22;100.00
20023;BME280;10172;42.054;24.546;2023-05-12T07:05:12;98600.97;;;12.41;100.00
20023;BME280;10172;42.054;24.546;2023-05-12T07:07:38;98693.41;;;12.92;100.00
20023;BME280;10172;42.054;24.546;2023-05-12T07:10:04;98697.41;;;11.70;100.00
20023;BME280;10172;42.054;24.546;2023-05-12T07:12:30;98687.13;;;11.64;100.00
20023;BME280;10172;42.054;24.546;2023-05-12T07:14:56;98687.94;;;10.83;100.00
20023;BME280;10172;42.054;24.546;2023-05-12T07:17:22;98647.66;;;10.03;100.00
20023;BME280;10172;42.054;24.546;2023-05-12T07:19:47;98673.38;;;10.02;100.00
20023;BME280;10172;42.054;24.546;2023-05-12T07:22:13;98652.66;;;10.79;100.00
20023;BME280;10172;42.054;24.546;2023-05-12T07:24:39;98677.59;;;11.74;100.00
20023;BME280;10172;42.054;24.546;2023-05-12T07:27:05;98640.75;;;11.93;100.00
20023;BME280;10172;42.054;24.546;2023-05-12T07:29:32;98634.69;;;11.65;100.00
20023;BME280;10172;42.054;24.546;2023-05-12T07:31:58;98654.13;;;11.79;100.00
20023;BME280;10172;42.054;24.546;2023-05-12T07:34:23;98698.56;;;11.52;100.00
20023;BME280;10172;42.054;24.546;2023-05-12T07:36:49;98667.19;;;11.96;100.00
20023;BME280;10172;42.054;24.546;2023-05-12T07:39:14;98676.44;;;12.68;100.00
20023;BME280;10172;42.054;24.546;2023-05-12T07:41:43;98676.47;;;12.43;100.00
20023;BME280;10172;42.054;24.546;2023-05-12T07:44:09;98692.69;;;12.00;100.00
20023;BME280;10172;42.054;24.546;2023-05-12T07:46:34;98639.00;;;12.32;100.00
20023;BME280;10172;42.054;24.546;2023-05-12T07:49:01;98651.78;;;12.77;100.00
20023;BME280;10172;42.054;24.546;2023-05-12T07:51:26;98656.59;;;12.72;100.00
20023;BME280;10172;42.054;24.546;2023-05-12T07:53:51;98678.44;;;12.14;100.00
20023;BME280;10172;42.054;24.546;2023-05-12T07:56:19;98638.22;;;12.17;100.00
20023;BME280;10172;42.054;24.546;2023-05-12T07:58:46;98687.50;;;12.12;100.00
20023;BME280;10172;42.054;24.546;2023-05-12T08:01:11;98581.03;;;10.62;100.00
20023;BME280;10172;42.054;24.546;2023-05-12T08:03:37;98656.06;;;11.77;100.00
20023;BME280;10172;42.054;24.546;2023-05-12T08:06:03;98633.22;;;11.73;100.00
20023;BME280;10172;42.054;24.546;2023-05-12T08:08:32;98640.72;;;11.54;100.00
20023;BME280;10172;42.054;24.546;2023-05-12T08:10:57;98698.09;;;12.38;100.00
20023;BME280;10172;42.054;24.546;2023-05-12T08:13:23;98657.44;;;11.70;100.00
20023;BME280;10172;42.054;24.546;2023-05-12T08:15:49;98693.81;;;12.36;100.00
20023;BME280;10172;42.054;24.546;2023-05-12T08:18:14;98622.81;;;11.56;100.00
20023;BME280;10172;42.054;24.546;2023-05-12T08:20:40;98668.84;;;12.49;100.00
20023;BME280;10172;42.054;24.546;2023-05-12T08:23:06;98670.69;;;11.43;100.00
20023;BME280;10172;42.054;24.546;2023-05-12T08:25:31;98649.19;;;11.20;100.00
20023;BME280;10172;42.054;24.546;2023-05-12T08:27:59;98639.25;;;11.36;100.00
20023;BME280;10172;42.054;24.546;2023-05-12T08:30:25;98644.34;;;11.80;100.00
20023;BME280;10172;42.054;24.546;2023-05-12T08:32:52;98647.53;;;11.72;100.00
20023;BME280;10172;42.054;24.546;2023-05-12T08:35:17;98653.53;;;11.35;100.00
20023;BME280;10172;42.054;24.546;2023-05-12T08:37:44;98635.34;;;11.01;100.00
20023;BME280;10172;42.054;24.546;2023-05-12T08:40:14;98686.97;;;11.53;100.00
20023;BME280;10172;42.054;24.546;2023-05-12T08:45:37;98702.28;;;12.42;100.00
20023;BME280;10172;42.054;24.546;2023-05-12T08:48:05;98690.75;;;12.42;100.00
20023;BME280;10172;42.054;24.546;2023-05-12T08:50:35;98667.47;;;12.94;100.00
20023;BME280;10172;42.054;24.546;2023-05-12T08:53:07;98692.00;;;12.49;100.00
20023;BME280;10172;42.054;24.546;2023-05-12T08:55:35;98676.00;;;12.87;100.00
20023;BME280;10172;42.054;24.546;2023-05-12T08:58:02;98678.66;;;12.87;100.00
20023;BME280;10172;42.054;24.546;2023-05-12T09:00:27;98668.31;;;13.07;100.00
20023;BME280;10172;42.054;24.546;2023-05-12T09:02:53;98635.25;;;12.47;100.00
20023;BME280;10172;42.054;24.546;2023-05-12T09:05:20;98638.69;;;12.98;100.00
20023;BME280;10172;42.054;24.546;2023-05-12T09:07:47;98653.19;;;12.45;100.00
20023;BME280;10172;42.054;24.546;2023-05-12T09:10:15;98652.25;;;13.20;100.00
20023;BME280;10172;42.054;24.546;2023-05-12T09:12:45;98624.59;;;13.45;100.00
20023;BME280;10172;42.054;24.546;2023-05-12T09:15:17;98683.25;;;13.83;100.00
20023;BME280;10172;42.054;24.546;2023-05-12T09:17:44;98648.94;;;14.57;100.00
20023;BME280;10172;42.054;24.546;2023-05-12T09:20:11;98664.03;;;15.36;98.02
20023;BME280;10172;42.054;24.546;2023-05-12T09:22:37;98667.63;;;14.81;98.10
20023;BME280;10172;42.054;24.546;2023-05-12T09:25:17;98665.84;;;15.57;95.81
20023;BME280;10172;42.054;24.546;2023-05-12T09:27:45;98669.16;;;14.15;100.00
20023;BME280;10172;42.054;24.546;2023-05-12T09:30:11;98649.69;;;14.13;100.00
20023;BME280;10172;42.054;24.546;2023-05-12T09:32:37;98668.25;;;14.38;98.13
20023;BME280;10172;42.054;24.546;2023-05-12T09:35:07;98664.19;;;14.57;94.47
20023;BME280;10172;42.054;24.546;2023-05-12T09:37:35;98645.19;;;14.71;94.53
20023;BME280;10172;42.054;24.546;2023-05-12T09:40:06;98662.97;;;14.72;95.85
20023;BME280;10172;42.054;24.546;2023-05-12T09:42:32;98668.56;;;14.69;97.29
20023;BME280;10172;42.054;24.546;2023-05-12T09:45:03;98662.22;;;15.47;93.29
20023;BME280;10172;42.054;24.546;2023-05-12T09:47:35;98622.59;;;14.29;94.33
20023;BME280;10172;42.054;24.546;2023-05-12T09:50:03;98672.72;;;14.84;90.79
20023;BME280;10172;42.054;24.546;2023-05-12T09:52:30;98669.53;;;14.57;95.09
20023;BME280;10172;42.054;24.546;2023-05-12T09:55:11;98641.41;;;14.05;97.62
20023;BME280;10172;42.054;24.546;2023-05-12T09:57:40;98653.75;;;14.76;93.30
20023;BME280;10172;42.054;24.546;2023-05-12T10:00:08;98638.31;;;15.55;89.27
20023;BME280;10172;42.054;24.546;2023-05-12T10:02:34;98655.47;;;16.48;84.38
20023;BME280;10172;42.054;24.546;2023-05-12T10:05:04;98652.63;;;16.08;86.62
20023;BME280;10172;42.054;24.546;2023-05-12T10:07:31;98654.56;;;14.54;96.02
20023;BME280;10172;42.054;24.546;2023-05-12T10:09:59;98638.03;;;14.93;93.77
20023;BME280;10172;42.054;24.546;2023-05-12T10:12:25;98642.38;;;15.17;95.08
20023;BME280;10172;42.054;24.546;2023-05-12T10:14:51;98629.13;;;14.82;93.48
20023;BME280;10172;42.054;24.546;2023-05-12T10:17:18;98604.25;;;14.35;98.80
20023;BME280;10172;42.054;24.546;2023-05-12T10:19:46;98651.41;;;15.49;96.43
20023;BME280;10172;42.054;24.546;2023-05-12T10:22:14;98661.47;;;14.46;96.14
20023;BME280;10172;42.054;24.546;2023-05-12T10:24:40;98613.91;;;14.14;100.00
20023;BME280;10172;42.054;24.546;2023-05-12T10:27:06;98642.00;;;15.43;95.92
20023;BME280;10172;42.054;24.546;2023-05-12T10:29:32;98656.50;;;16.36;88.78
20023;BME280;10172;42.054;24.546;2023-05-12T10:31:59;98619.88;;;14.97;96.38
20023;BME280;10172;42.054;24.546;2023-05-12T10:34:36;98651.19;;;15.73;90.51
20023;BME280;10172;42.054;24.546;2023-05-12T10:37:06;98624.28;;;16.36;87.26
20023;BME280;10172;42.054;24.546;2023-05-12T10:39:49;98626.69;;;15.98;80.89
20023;BME280;10172;42.054;24.546;2023-05-12T10:42:23;98635.63;;;16.81;76.93
20023;BME280;10172;42.054;24.546;2023-05-12T10:44:54;98633.41;;;16.96;73.43
20023;BME280;10172;42.054;24.546;2023-05-12T10:47:38;98627.84;;;17.67;73.27
20023;BME280;10172;42.054;24.546;2023-05-12T10:50:04;98631.66;;;17.25;72.58
20023;BME280;10172;42.054;24.546;2023-05-12T10:52:30;98631.81;;;17.33;73.27
20023;BME280;10172;42.054;24.546;2023-05-12T10:55:00;98620.75;;;17.57;70.91
20023;BME280;10172;42.054;24.546;2023-05-12T10:57:26;98610.63;;;17.49;71.33
20023;BME280;10172;42.054;24.546;2023-05-12T10:59:57;98597.91;;;17.51;70.97
20023;BME280;10172;42.054;24.546;2023-05-12T11:02:24;98609.44;;;17.91;69.59
20023;BME280;10172;42.054;24.546;2023-05-12T11:05:00;98604.91;;;17.92;68.58
20023;BME280;10172;42.054;24.546;2023-05-12T11:07:30;98608.66;;;17.51;69.43
20023;BME280;10172;42.054;24.546;2023-05-12T11:09:57;98627.72;;;17.98;68.56
20023;BME280;10172;42.054;24.546;2023-05-12T11:12:26;98626.28;;;17.74;69.56
20023;BME280;10172;42.054;24.546;2023-05-12T11:14:52;98589.09;;;17.30;70.17
20023;BME280;10172;42.054;24.546;2023-05-12T11:17:17;98623.47;;;17.36;70.44
20023;BME280;10172;42.054;24.546;2023-05-12T11:19:47;98596.25;;;17.60;67.24
20023;BME280;10172;42.054;24.546;2023-05-12T11:22:17;98605.44;;;17.76;67.55
20023;BME280;10172;42.054;24.546;2023-05-12T11:24:44;98601.00;;;17.47;67.27
20023;BME280;10172;42.054;24.546;2023-05-12T11:27:15;98626.13;;;17.57;68.97
20023;BME280;10172;42.054;24.546;2023-05-12T11:29:41;98586.84;;;17.35;66.40
20023;BME280;10172;42.054;24.546;2023-05-12T11:32:08;98606.31;;;17.67;66.92
20023;BME280;10172;42.054;24.546;2023-05-12T11:34:34;98574.69;;;17.50;65.74
20023;BME280;10172;42.054;24.546;2023-05-12T11:37:00;98612.97;;;17.82;67.32
20023;BME280;10172;42.054;24.546;2023-05-12T11:39:27;98579.81;;;18.11;63.58
20023;BME280;10172;42.054;24.546;2023-05-12T11:42:01;98605.56;;;18.32;65.13
20023;BME280;10172;42.054;24.546;2023-05-12T11:44:28;98595.25;;;18.84;63.42
20023;BME280;10172;42.054;24.546;2023-05-12T11:49:20;98574.63;;;18.65;60.77
20023;BME280;10172;42.054;24.546;2023-05-12T11:51:45;98582.09;;;19.08;60.99
20023;BME280;10172;42.054;24.546;2023-05-12T11:54:11;98593.13;;;18.78;61.27
20023;BME280;10172;42.054;24.546;2023-05-12T11:56:36;98573.94;;;18.90;59.44
20023;BME280;10172;42.054;24.546;2023-05-12T11:59:02;98584.81;;;19.53;60.41
20023;BME280;10172;42.054;24.546;2023-05-12T12:01:27;98554.19;;;19.17;57.60
20023;BME280;10172;42.054;24.546;2023-05-12T12:03:54;98575.47;;;18.46;63.42
20023;BME280;10172;42.054;24.546;2023-05-12T12:06:20;98572.09;;;18.44;61.26
20023;BME280;10172;42.054;24.546;2023-05-12T12:08:53;98573.63;;;18.47;62.26
20023;BME280;10172;42.054;24.546;2023-05-12T12:11:21;98572.25;;;18.89;60.78
20023;BME280;10172;42.054;24.546;2023-05-12T12:13:49;98565.50;;;19.03;60.13
20023;BME280;10172;42.054;24.546;2023-05-12T12:16:21;98552.34;;;18.63;59.92
20023;BME280;10172;42.054;24.546;2023-05-12T12:18:46;98570.44;;;18.80;60.22
20023;BME280;10172;42.054;24.546;2023-05-12T12:21:12;98520.56;;;18.67;59.70
20023;BME280;10172;42.054;24.546;2023-05-12T12:23:37;98503.00;;;18.16;59.77
20023;BME280;10172;42.054;24.546;2023-05-12T12:26:03;98532.88;;;18.79;59.19
20023;BME280;10172;42.054;24.546;2023-05-12T12:28:28;98542.03;;;18.86;55.83
20023;BME280;10172;42.054;24.546;2023-05-12T12:30:54;98544.44;;;18.52;56.70
20023;BME280;10172;42.054;24.546;2023-05-12T12:33:19;98552.03;;;18.76;58.28
20023;BME280;10172;42.054;24.546;2023-05-12T12:35:45;98524.91;;;18.31;60.14
20023;BME280;10172;42.054;24.546;2023-05-12T12:38:11;98520.09;;;18.25;59.86
20023;BME280;10172;42.054;24.546;2023-05-12T12:40:37;98550.13;;;18.86;60.09
20023;BME280;10172;42.054;24.546;2023-05-12T12:43:02;98536.78;;;18.57;59.32
20023;BME280;10172;42.054;24.546;2023-05-12T12:45:28;98534.72;;;18.78;57.97